createdAt,value
2018-12-29T00:02:12.400Z,25.03
2018-12-29T00:04:41.186Z,20.80
2018-12-29T00:07:09.815Z,25.03
2018-12-29T00:09:38.831Z,25.07
2018-12-29T00:12:07.963Z,23.23
2018-12-29T00:14:36.972Z,24.93
2018-12-29T00:17:07.449Z,21.13
2018-12-29T00:19:36.762Z,26.73
2018-12-29T00:22:16.718Z,26.67
2018-12-29T00:24:45.988Z,24.17
2018-12-29T00:27:16.296Z,23.63
2018-12-29T00:29:45.498Z,24.73
2018-12-29T00:32:14.011Z,24.87
2018-12-29T00:34:42.316Z,24.60
2018-12-29T00:37:10.697Z,20.60
2018-12-29T00:39:39.045Z,25.43
2018-12-29T00:43:00.327Z,21.77
2018-12-29T00:45:29.314Z,21.13
2018-12-29T00:47:58.184Z,22.67
2018-12-29T00:50:28.591Z,23.43
2018-12-29T00:53:14.722Z,24.33
2018-12-29T00:55:43.693Z,27.20
2018-12-29T00:58:12.660Z,26.63
2018-12-29T01:00:41.522Z,22.50
2018-12-29T01:03:10.426Z,20.40
2018-12-29T01:05:39.312Z,27.27
2018-12-29T01:08:08.164Z,23.40
2018-12-29T01:10:37.062Z,21.03
2018-12-29T01:13:06.213Z,24.90
2018-12-29T01:15:35.100Z,24.10
2018-12-29T01:18:04.545Z,22.00
2018-12-29T01:20:33.411Z,23.03
2018-12-29T01:23:02.398Z,21.90
2018-12-29T01:25:31.353Z,20.03
2018-12-29T01:28:00.624Z,22.73
2018-12-29T01:30:29.517Z,23.27
2018-12-29T01:32:58.426Z,25.70
2018-12-29T01:35:27.425Z,19.80
2018-12-29T01:37:56.367Z,21.03
2018-12-29T01:40:25.272Z,27.67
2018-12-29T01:42:55.362Z,20.73
2018-12-29T01:45:24.285Z,19.70
2018-12-29T01:47:53.177Z,22.60
2018-12-29T01:50:22.185Z,20.23
2018-12-29T01:52:51.357Z,21.03
2018-12-29T01:55:20.301Z,23.43
2018-12-29T01:57:49.135Z,19.93
2018-12-29T02:00:18.071Z,18.77
2018-12-29T02:02:46.957Z,21.10
2018-12-29T02:05:16.101Z,21.97
2018-12-29T02:07:45.026Z,23.27
2018-12-29T02:10:14.343Z,22.70
2018-12-29T02:12:43.377Z,20.93
2018-12-29T02:15:13.536Z,23.07
2018-12-29T02:17:42.830Z,18.50
2018-12-29T02:20:12.237Z,20.87
2018-12-29T02:22:41.302Z,20.30
2018-12-29T02:25:10.248Z,18.63
2018-12-29T02:27:39.120Z,17.77
2018-12-29T02:30:08.107Z,17.17
2018-12-29T02:32:38.433Z,19.03
2018-12-29T02:35:07.898Z,19.00
2018-12-29T02:37:36.993Z,18.57
2018-12-29T02:40:06.395Z,20.33
2018-12-29T02:42:38.150Z,20.50
2018-12-29T02:45:08.007Z,18.73
2018-12-29T02:47:37.254Z,21.40
2018-12-29T02:50:06.629Z,21.77
2018-12-29T02:52:35.954Z,20.47
2018-12-29T02:55:06.274Z,20.67
2018-12-29T02:57:35.222Z,21.53
2018-12-29T03:00:04.244Z,20.03
2018-12-29T03:02:38.422Z,21.60
2018-12-29T03:05:07.533Z,20.03
2018-12-29T03:07:36.433Z,21.40
2018-12-29T03:10:05.564Z,18.80
2018-12-29T03:12:34.621Z,17.27
2018-12-29T03:15:03.565Z,20.20
2018-12-29T03:17:32.450Z,18.30
2018-12-29T03:20:01.345Z,18.93
2018-12-29T03:22:30.494Z,15.17
2018-12-29T03:25:00.408Z,17.93
2018-12-29T03:27:29.555Z,19.43
2018-12-29T03:29:58.420Z,16.33
2018-12-29T03:32:27.289Z,19.57
2018-12-29T03:34:56.373Z,16.80
2018-12-29T03:37:26.140Z,19.57
2018-12-29T03:39:55.028Z,15.60
2018-12-29T03:42:25.222Z,18.40
2018-12-29T03:44:54.180Z,17.93
2018-12-29T03:47:23.125Z,14.87
2018-12-29T03:49:52.065Z,15.40
2018-12-29T03:52:21.206Z,20.27
2018-12-29T03:54:50.105Z,16.57
2018-12-29T03:57:19.119Z,18.10
2018-12-29T03:59:48.378Z,16.50
2018-12-29T04:02:17.350Z,17.03
2018-12-29T04:04:46.290Z,16.37
2018-12-29T04:07:15.270Z,18.27
2018-12-29T04:09:44.235Z,20.43
2018-12-29T04:12:24.844Z,17.07
2018-12-29T04:14:53.918Z,16.67
2018-12-29T04:17:22.965Z,17.87
2018-12-29T04:19:51.923Z,20.53
2018-12-29T04:22:31.330Z,16.33
2018-12-29T04:25:00.203Z,25.83
2018-12-29T04:27:30.113Z,14.80
2018-12-29T04:29:59.805Z,16.30
2018-12-29T04:32:33.786Z,18.20
2018-12-29T04:35:03.482Z,15.63
2018-12-29T04:37:32.643Z,20.80
2018-12-29T04:40:02.008Z,21.37
2018-12-29T04:42:30.955Z,16.00
2018-12-29T04:44:59.815Z,19.60
2018-12-29T04:47:28.792Z,17.87
2018-12-29T04:49:58.657Z,16.83
2018-12-29T04:52:27.556Z,16.53
2018-12-29T04:54:56.778Z,21.13
2018-12-29T04:57:25.719Z,17.90
2018-12-29T04:59:54.599Z,17.17
2018-12-29T05:02:23.537Z,19.47
2018-12-29T05:04:52.533Z,21.53
2018-12-29T05:07:21.378Z,18.40
2018-12-29T05:09:50.309Z,16.77
2018-12-29T05:12:19.366Z,16.30
2018-12-29T05:14:48.778Z,20.07
2018-12-29T05:17:17.709Z,13.80
2018-12-29T05:19:46.835Z,14.23
2018-12-29T05:22:15.707Z,14.03
2018-12-29T05:24:44.584Z,14.57
2018-12-29T05:27:13.659Z,14.77
2018-12-29T05:29:42.551Z,14.67
2018-12-29T05:32:11.514Z,11.20
2018-12-29T05:34:40.381Z,13.63
2018-12-29T05:37:09.286Z,14.80
2018-12-29T05:39:38.219Z,15.83
2018-12-29T05:42:07.975Z,14.27
2018-12-29T05:44:36.926Z,11.33
2018-12-29T05:47:05.766Z,14.07
2018-12-29T05:49:34.741Z,15.40
2018-12-29T05:52:04.517Z,15.67
2018-12-29T05:54:33.461Z,16.77
2018-12-29T05:57:02.358Z,13.00
2018-12-29T05:59:31.229Z,15.07
2018-12-29T06:02:00.289Z,14.50
2018-12-29T06:04:29.278Z,16.27
2018-12-29T06:06:58.554Z,15.87
2018-12-29T06:09:29.571Z,14.97
2018-12-29T06:12:03.578Z,17.13
2018-12-29T06:14:32.421Z,13.73
2018-12-29T06:17:01.384Z,18.77
2018-12-29T06:19:30.381Z,13.97
2018-12-29T06:22:14.298Z,14.93
2018-12-29T06:24:43.578Z,12.17
2018-12-29T06:27:12.561Z,12.30
2018-12-29T06:29:41.413Z,16.07
2018-12-29T06:32:10.312Z,19.73
2018-12-29T06:34:39.171Z,15.50
2018-12-29T06:37:08.235Z,14.87
2018-12-29T06:39:37.098Z,14.83
2018-12-29T06:42:05.989Z,15.33
2018-12-29T06:44:35.003Z,11.50
2018-12-29T06:47:03.974Z,9.23
2018-12-29T06:49:32.878Z,11.70
2018-12-29T06:52:01.764Z,10.00
2018-12-29T06:54:31.033Z,10.03
2018-12-29T06:56:59.909Z,13.63
2018-12-29T06:59:31.502Z,8.63
2018-12-29T07:02:00.460Z,10.07
2018-12-29T07:04:30.450Z,12.20
2018-12-29T07:06:59.438Z,11.00
2018-12-29T07:09:29.295Z,10.50
2018-12-29T07:11:58.546Z,10.60
2018-12-29T07:14:27.445Z,9.90
2018-12-29T07:16:57.060Z,13.37
2018-12-29T07:19:25.986Z,8.33
2018-12-29T07:21:55.015Z,7.77
2018-12-29T07:24:23.870Z,9.77
2018-12-29T07:26:52.822Z,10.37
2018-12-29T07:29:21.742Z,10.47
2018-12-29T07:31:50.645Z,9.10
2018-12-29T07:34:19.833Z,9.93
2018-12-29T07:36:49.761Z,12.67
2018-12-29T07:39:19.313Z,17.43
2018-12-29T07:41:49.821Z,12.27
2018-12-29T07:44:18.873Z,11.57
2018-12-29T07:46:49.786Z,8.83
2018-12-29T07:49:19.362Z,13.13
2018-12-29T07:51:49.009Z,8.83
2018-12-29T07:54:17.918Z,10.73
2018-12-29T07:56:47.872Z,8.57
2018-12-29T07:59:17.887Z,8.57
2018-12-29T08:01:46.877Z,10.43
2018-12-29T08:04:16.041Z,10.53
2018-12-29T08:06:45.141Z,11.80
2018-12-29T08:09:14.065Z,12.23
2018-12-29T08:11:43.023Z,9.03
2018-12-29T08:14:12.306Z,10.97
2018-12-29T08:16:41.170Z,10.33
2018-12-29T08:19:10.077Z,9.80
2018-12-29T08:21:41.018Z,11.77
2018-12-29T08:24:15.328Z,10.07
2018-12-29T08:26:44.524Z,10.53
2018-12-29T08:29:15.898Z,10.70
2018-12-29T08:31:45.249Z,8.70
2018-12-29T08:34:14.566Z,8.70
2018-12-29T08:36:43.516Z,8.67
2018-12-29T08:39:12.531Z,7.17
2018-12-29T08:41:41.403Z,7.40
2018-12-29T08:44:10.379Z,9.23
2018-12-29T08:46:39.450Z,11.47
2018-12-29T08:49:08.372Z,8.93
2018-12-29T08:51:37.286Z,6.97
2018-12-29T08:54:09.581Z,10.97
2018-12-29T08:56:38.695Z,10.53
2018-12-29T08:59:07.553Z,11.40
2018-12-29T09:01:36.848Z,11.57
2018-12-29T09:04:07.011Z,12.40
2018-12-29T09:06:36.829Z,11.00
2018-12-29T09:09:07.142Z,11.50
2018-12-29T09:11:36.227Z,10.60
2018-12-29T09:14:07.077Z,11.37
2018-12-29T09:16:37.191Z,9.53
2018-12-29T09:19:06.078Z,12.50
2018-12-29T09:21:34.933Z,9.87
2018-12-29T09:24:03.994Z,10.07
2018-12-29T09:26:32.878Z,7.63
2018-12-29T09:29:01.785Z,11.10
2018-12-29T09:31:30.698Z,9.33
2018-12-29T09:33:59.565Z,9.03
2018-12-29T09:36:28.461Z,6.43
2018-12-29T09:38:57.394Z,6.73
2018-12-29T09:41:26.246Z,8.83
2018-12-29T09:43:55.321Z,5.17
2018-12-29T09:46:24.191Z,4.70
2018-12-29T09:48:53.130Z,6.17
2018-12-29T09:51:21.976Z,4.07
2018-12-29T09:53:51.073Z,3.23
2018-12-29T09:56:19.990Z,5.13
2018-12-29T09:58:49.113Z,4.40
2018-12-29T10:01:18.028Z,4.27
2018-12-29T10:03:47.226Z,5.77
2018-12-29T10:06:16.056Z,4.37
2018-12-29T10:08:44.914Z,5.40
2018-12-29T10:11:13.839Z,3.30
2018-12-29T10:13:42.797Z,4.53
2018-12-29T10:16:11.835Z,4.13
2018-12-29T10:18:40.704Z,3.70
2018-12-29T10:21:09.516Z,5.80
2018-12-29T10:23:38.529Z,8.13
2018-12-29T10:26:07.432Z,5.80
2018-12-29T10:28:36.248Z,5.10
2018-12-29T10:31:05.199Z,7.80
2018-12-29T10:33:34.153Z,5.77
2018-12-29T10:36:02.970Z,2.50
2018-12-29T10:38:31.929Z,3.07
2018-12-29T10:41:01.761Z,4.07
2018-12-29T10:43:30.730Z,3.03
2018-12-29T10:45:59.647Z,2.80
2018-12-29T10:48:28.465Z,2.50
2018-12-29T10:50:57.312Z,1.83
2018-12-29T10:53:26.581Z,2.33
2018-12-29T10:55:55.497Z,2.70
2018-12-29T10:58:24.306Z,4.63
2018-12-29T11:00:53.292Z,3.57
2018-12-29T11:03:22.463Z,2.70
2018-12-29T11:05:51.361Z,4.17
2018-12-29T11:08:20.329Z,4.23
2018-12-29T11:10:49.132Z,4.23
2018-12-29T11:13:18.105Z,2.50
2018-12-29T11:15:47.357Z,3.07
2018-12-29T11:18:16.174Z,2.57
2018-12-29T11:20:45.374Z,2.40
2018-12-29T11:23:14.420Z,1.77
2018-12-29T11:25:43.347Z,2.27
2018-12-29T11:28:12.277Z,1.80
2018-12-29T11:30:41.107Z,2.20
2018-12-29T11:33:10.060Z,1.53
2018-12-29T11:35:38.880Z,1.57
2018-12-29T11:38:07.731Z,2.37
2018-12-29T11:40:36.537Z,2.63
2018-12-29T11:43:05.704Z,1.60
2018-12-29T11:45:34.704Z,2.17
2018-12-29T11:48:03.771Z,3.70
2018-12-29T11:50:32.717Z,3.23
2018-12-29T11:53:01.866Z,2.90
2018-12-29T11:55:30.821Z,1.93
2018-12-29T11:58:00.130Z,2.20
2018-12-29T12:00:28.971Z,2.27
2018-12-29T12:02:57.894Z,1.80
2018-12-29T12:05:26.702Z,3.07
2018-12-29T12:07:55.537Z,2.40
2018-12-29T12:10:24.522Z,2.97
2018-12-29T12:12:53.553Z,3.00
2018-12-29T12:15:22.402Z,4.27
2018-12-29T12:17:57.529Z,4.00
2018-12-29T12:20:21.841Z,2.20
2018-12-29T12:22:50.789Z,2.80
2018-12-29T12:25:19.743Z,2.77
2018-12-29T12:27:49.162Z,4.73
2018-12-29T12:30:18.066Z,3.93
2018-12-29T12:32:47.121Z,2.40
2018-12-29T12:35:16.012Z,2.53
2018-12-29T12:37:45.008Z,2.70
2018-12-29T12:40:14.299Z,2.10
2018-12-29T12:42:43.445Z,4.53
2018-12-29T12:45:12.431Z,3.37
2018-12-29T12:47:41.492Z,2.93
2018-12-29T12:50:10.476Z,3.03
2018-12-29T12:52:40.238Z,5.40
2018-12-29T12:55:09.134Z,2.83
2018-12-29T12:57:37.929Z,6.90
2018-12-29T13:00:08.610Z,3.27
2018-12-29T13:02:38.031Z,4.23
2018-12-29T13:05:07.201Z,2.67
2018-12-29T13:07:36.132Z,3.43
2018-12-29T13:10:05.979Z,3.03
2018-12-29T13:12:35.165Z,3.40
2018-12-29T13:15:04.345Z,2.97
2018-12-29T13:17:33.246Z,3.30
2018-12-29T13:20:02.064Z,2.47
2018-12-29T13:22:31.092Z,2.80
2018-12-29T13:25:00.856Z,1.87
2018-12-29T13:27:29.698Z,1.83
2018-12-29T13:29:58.638Z,1.90
2018-12-29T13:32:27.523Z,2.10
2018-12-29T13:34:56.393Z,2.90
2018-12-29T13:37:25.321Z,3.00
2018-12-29T13:39:54.263Z,2.63
2018-12-29T13:42:23.102Z,2.13
2018-12-29T13:44:51.994Z,1.43
2018-12-29T13:47:20.893Z,1.70
2018-12-29T13:49:50.336Z,2.13
2018-12-29T13:52:19.391Z,1.77
2018-12-29T13:54:48.270Z,1.50
2018-12-29T13:57:17.358Z,1.80
2018-12-29T13:59:46.298Z,2.90
2018-12-29T14:02:15.109Z,1.10
2018-12-29T14:04:43.949Z,1.73
2018-12-29T14:07:13.750Z,2.00
2018-12-29T14:09:42.594Z,2.60
2018-12-29T14:12:11.967Z,2.07
2018-12-29T14:14:40.812Z,4.10
2018-12-29T14:17:09.894Z,3.13
2018-12-29T14:19:38.733Z,2.97
2018-12-29T14:22:07.717Z,1.97
2018-12-29T14:24:36.552Z,1.80
2018-12-29T14:27:05.525Z,2.10
2018-12-29T14:29:34.483Z,1.53
2018-12-29T14:32:04.035Z,1.87
2018-12-29T14:34:33.021Z,2.10
2018-12-29T14:37:02.007Z,3.10
2018-12-29T14:39:30.924Z,5.07
2018-12-29T14:41:59.741Z,6.93
2018-12-29T14:44:28.709Z,3.13
2018-12-29T14:46:57.585Z,1.70
2018-12-29T14:49:26.397Z,3.17
2018-12-29T14:51:55.250Z,2.73
2018-12-29T14:54:24.136Z,1.23
2018-12-29T14:56:53.054Z,3.37
2018-12-29T14:59:22.566Z,3.10
2018-12-29T15:01:51.442Z,2.20
2018-12-29T15:04:20.267Z,3.63
2018-12-29T15:06:49.869Z,5.67
2018-12-29T15:09:18.669Z,3.17
2018-12-29T15:11:47.677Z,3.67
2018-12-29T15:14:16.817Z,1.67
2018-12-29T15:16:46.143Z,4.17
2018-12-29T15:19:15.066Z,2.20
2018-12-29T15:21:44.140Z,2.57
2018-12-29T15:24:13.329Z,3.50
2018-12-29T15:26:42.218Z,2.63
2018-12-29T15:29:11.437Z,3.57
2018-12-29T15:31:40.592Z,5.63
2018-12-29T15:34:09.733Z,5.00
2018-12-29T15:36:38.989Z,6.73
2018-12-29T15:39:08.054Z,5.77
2018-12-29T15:41:37.025Z,8.73
2018-12-29T15:44:06.805Z,9.80
2018-12-29T15:46:36.583Z,12.63
2018-12-29T15:49:08.035Z,6.83
2018-12-29T15:51:36.923Z,8.80
2018-12-29T15:54:16.099Z,11.90
2018-12-29T15:56:45.930Z,7.93
2018-12-29T15:59:14.853Z,13.23
2018-12-29T16:01:43.921Z,11.97
2018-12-29T16:04:13.044Z,7.70
2018-12-29T16:06:42.087Z,10.07
2018-12-29T16:09:10.961Z,10.70
2018-12-29T16:11:40.345Z,11.03
2018-12-29T16:14:09.229Z,10.90
2018-12-29T16:16:39.255Z,11.60
2018-12-29T16:19:08.216Z,11.30
2018-12-29T16:21:37.139Z,11.63
2018-12-29T16:24:07.106Z,45.77
2018-12-29T16:26:36.461Z,10.20
2018-12-29T16:29:05.404Z,13.87
2018-12-29T16:31:34.333Z,17.00
2018-12-29T16:34:03.778Z,14.93
2018-12-29T16:36:33.089Z,17.60
2018-12-29T16:39:02.033Z,18.03
2018-12-29T16:41:31.042Z,15.53
2018-12-29T16:44:00.284Z,21.00
2018-12-29T16:46:29.201Z,17.90
2018-12-29T16:49:06.689Z,15.27
2018-12-29T16:51:31.141Z,15.50
2018-12-29T16:54:00.073Z,15.77
2018-12-29T16:56:29.598Z,14.43
2018-12-29T16:59:00.179Z,14.43
2018-12-29T17:01:30.155Z,18.43
2018-12-29T17:03:59.552Z,14.83
2018-12-29T17:06:31.302Z,16.53
2018-12-29T17:09:01.026Z,16.57
2018-12-29T17:11:30.790Z,17.27
2018-12-29T17:13:59.950Z,17.97
2018-12-29T17:16:28.898Z,19.43
2018-12-29T17:18:57.912Z,22.20
2018-12-29T17:21:27.080Z,17.87
2018-12-29T17:23:57.225Z,21.33
2018-12-29T17:26:27.212Z,18.53
2018-12-29T17:28:56.261Z,17.33
2018-12-29T17:31:25.155Z,18.77
2018-12-29T17:33:54.299Z,22.80
2018-12-29T17:36:23.229Z,20.50
2018-12-29T17:38:53.070Z,18.53
2018-12-29T17:41:22.014Z,18.43
2018-12-29T17:43:53.321Z,19.97
2018-12-29T17:46:22.814Z,23.77
2018-12-29T17:48:51.825Z,22.00
2018-12-29T17:51:21.650Z,22.20
2018-12-29T17:54:01.786Z,25.20
2018-12-29T17:56:53.292Z,26.23
2018-12-29T17:59:53.418Z,22.93
2018-12-29T18:02:25.928Z,25.83
2018-12-29T18:05:00.427Z,19.97
2018-12-29T18:07:32.607Z,17.30
2018-12-29T18:10:06.307Z,19.73
2018-12-29T18:13:10.014Z,14.83
2018-12-29T18:15:59.010Z,17.17
2018-12-29T18:18:49.177Z,15.00
2018-12-29T18:21:19.527Z,14.37
2018-12-29T18:23:55.266Z,16.33
2018-12-29T18:26:27.423Z,17.73
2018-12-29T18:29:18.665Z,19.50
2018-12-29T18:31:50.904Z,26.93
2018-12-29T18:34:36.771Z,27.03
2018-12-29T18:40:22.150Z,30.90
2018-12-29T18:43:01.604Z,31.97
2018-12-29T18:45:37.804Z,35.73
2018-12-29T18:48:09.602Z,37.87
2018-12-29T18:50:40.577Z,38.97
2018-12-29T18:53:10.277Z,41.73
2018-12-29T18:55:40.305Z,39.40
2018-12-29T18:58:09.717Z,45.37
2018-12-29T19:00:44.282Z,44.90
2018-12-29T19:03:15.485Z,43.33
2018-12-29T19:05:45.316Z,45.80
2018-12-29T19:08:20.051Z,50.10
2018-12-29T19:10:46.964Z,48.40
2018-12-29T19:13:17.555Z,46.90
2018-12-29T19:15:53.536Z,43.47
2018-12-29T19:18:23.686Z,44.30
2018-12-29T19:20:54.816Z,45.60
2018-12-29T19:23:49.299Z,47.00
2018-12-29T19:26:19.726Z,47.53
2018-12-29T19:28:49.887Z,49.87
2018-12-29T19:31:21.590Z,47.43
2018-12-29T19:33:51.097Z,47.23
2018-12-29T19:36:21.539Z,48.40
2018-12-29T19:38:51.517Z,46.63
2018-12-29T19:41:22.900Z,48.07
2018-12-29T19:43:56.510Z,48.17
2018-12-29T19:46:25.841Z,47.13
2018-12-29T19:48:58.147Z,48.20
2018-12-29T19:51:29.637Z,46.80
2018-12-29T19:54:01.996Z,45.07
2018-12-29T19:56:31.766Z,50.80
2018-12-29T19:59:01.714Z,53.57
2018-12-29T20:01:33.368Z,55.80
2018-12-29T20:04:03.546Z,50.07
2018-12-29T20:06:32.493Z,50.00
2018-12-29T20:09:01.368Z,49.47
2018-12-29T20:11:30.285Z,54.47
2018-12-29T20:14:05.993Z,48.70
2018-12-29T20:16:36.069Z,50.60
2018-12-29T20:19:04.913Z,53.03
2018-12-29T20:21:35.958Z,52.77
2018-12-29T20:24:05.028Z,51.60
2018-12-29T20:26:33.886Z,46.97
2018-12-29T20:29:03.146Z,48.90
2018-12-29T20:31:32.017Z,46.63
2018-12-29T20:34:01.087Z,41.30
2018-12-29T20:36:30.057Z,49.40
2018-12-29T20:38:58.978Z,55.27
2018-12-29T20:41:28.005Z,49.87
2018-12-29T20:44:27.490Z,47.27
2018-12-29T20:46:57.095Z,48.90
2018-12-29T20:49:26.337Z,51.23
2018-12-29T20:51:58.076Z,48.30
2018-12-29T20:54:28.489Z,48.00
2018-12-29T20:56:57.769Z,48.53
2018-12-29T20:59:28.473Z,51.60
2018-12-29T21:01:58.693Z,45.63
2018-12-29T21:04:29.633Z,48.03
2018-12-29T21:06:59.201Z,43.43
2018-12-29T21:09:28.618Z,46.10
2018-12-29T21:11:58.421Z,47.07
2018-12-29T21:14:28.617Z,45.63
2018-12-29T21:16:57.926Z,46.10
2018-12-29T21:19:26.867Z,41.83
2018-12-29T21:21:56.632Z,42.93
2018-12-29T21:24:26.176Z,38.00
2018-12-29T21:26:55.129Z,39.23
2018-12-29T21:29:25.286Z,45.63
2018-12-29T21:32:02.993Z,46.17
2018-12-29T21:34:29.773Z,47.77
2018-12-29T21:36:59.246Z,46.87
2018-12-29T21:39:28.160Z,49.77
2018-12-29T21:41:57.317Z,52.80
2018-12-29T21:44:58.726Z,49.83
2018-12-29T21:47:27.734Z,52.43
2018-12-29T21:49:56.773Z,48.90
2018-12-29T21:52:25.649Z,55.70
2018-12-29T21:54:54.930Z,49.93
2018-12-29T21:57:23.840Z,53.87
2018-12-29T21:59:53.097Z,51.47
2018-12-29T22:02:22.053Z,52.40
2018-12-29T22:04:51.037Z,51.90
2018-12-29T22:07:19.995Z,50.93
2018-12-29T22:09:48.958Z,50.97
2018-12-29T22:12:18.026Z,46.43
2018-12-29T22:14:47.019Z,53.13
2018-12-29T22:17:15.969Z,59.57
2018-12-29T22:19:44.896Z,57.73
2018-12-29T22:22:14.305Z,57.63
2018-12-29T22:24:43.563Z,57.43
2018-12-29T22:27:12.667Z,56.10
2018-12-29T22:29:41.565Z,60.93
2018-12-29T22:32:10.619Z,55.93
2018-12-29T22:34:39.617Z,57.17
2018-12-29T22:37:08.846Z,53.47
2018-12-29T22:39:38.013Z,56.73
2018-12-29T22:42:07.701Z,52.07
2018-12-29T22:44:36.789Z,54.27
2018-12-29T22:47:06.157Z,49.20
2018-12-29T22:49:35.070Z,46.40
2018-12-29T22:52:04.106Z,43.90
2018-12-29T22:54:33.151Z,45.77
2018-12-29T22:57:02.063Z,46.40
2018-12-29T22:59:30.903Z,42.47
2018-12-29T23:02:00.296Z,42.77
2018-12-29T23:04:29.238Z,39.03
2018-12-29T23:06:58.147Z,39.30
2018-12-29T23:09:27.140Z,40.93
2018-12-29T23:11:56.445Z,43.73
2018-12-29T23:14:40.838Z,45.80
2018-12-29T23:17:09.764Z,43.70
2018-12-29T23:19:38.751Z,38.50
2018-12-29T23:22:07.620Z,45.20
2018-12-29T23:24:36.666Z,34.80
2018-12-29T23:27:05.649Z,40.83
2018-12-29T23:29:35.813Z,41.10
2018-12-29T23:32:04.747Z,41.03
2018-12-29T23:34:49.241Z,39.23
2018-12-29T23:37:18.346Z,35.77
2018-12-29T23:39:47.274Z,47.50
2018-12-29T23:42:16.327Z,46.73
2018-12-29T23:44:45.238Z,49.37
2018-12-29T23:47:14.252Z,51.93
2018-12-29T23:49:43.135Z,60.03
2018-12-29T23:52:12.457Z,66.33
2018-12-29T23:54:41.358Z,62.87
2018-12-29T23:57:10.437Z,61.60
2018-12-29T23:59:39.273Z,70.07
